Lewiston, Michigan
Current Conditions -  °F | °C
As of 12:13 PM on Thursday 30 Oct 2014 (Local Time) from KGLR Reporting Station
Overcast Overcast  
Wind Chill: 34°   Ceiling: 3600
Heat Index: 39°   Visibility: 10mi
Dew Point: 35°   Wind: 7mph
Humidity: 86%   Direction: 190°S
Pressure: 30.05"   Gusts: NA
Location:  44.88°N, 84.31°W
Report Text: KGLR 301613Z AUTO 19006KT 10SM SCT022 SCT030 OVC036 04/02 A3005 RMK AO2 T00390017
Loading
Personal Weather Stations






























Interactive Weather Map New forecast layout! Learn more

10-Day Weather Forecast

Advertisements
Track Severe Weather on mobile